createdAt,value
2022-08-31T00:02:39.345Z,97.54
2022-08-31T00:05:05.822Z,97.54
2022-08-31T00:07:34.812Z,97.21
2022-08-31T00:10:03.547Z,97.78
2022-08-31T00:12:29.917Z,97.96
2022-08-31T00:14:57.203Z,97.27
2022-08-31T00:17:23.568Z,97.31
2022-08-31T00:19:49.936Z,98.47
2022-08-31T00:22:16.303Z,99.78
2022-08-31T00:24:42.667Z,100.00
2022-08-31T00:27:09.102Z,100.00
2022-08-31T00:29:35.468Z,100.00
2022-08-31T00:32:01.933Z,100.00
2022-08-31T00:34:28.646Z,100.00
2022-08-31T00:36:55.089Z,98.57
2022-08-31T00:39:22.090Z,100.00
2022-08-31T00:41:48.513Z,100.00
2022-08-31T00:44:14.874Z,100.00
2022-08-31T00:46:41.660Z,100.00
2022-08-31T00:49:07.970Z,100.00
2022-08-31T00:51:36.698Z,100.00
2022-08-31T00:54:03.264Z,100.00
2022-08-31T00:56:31.378Z,99.62
2022-08-31T00:58:57.784Z,100.00
2022-08-31T01:01:24.482Z,100.00
2022-08-31T01:03:51.010Z,100.00
2022-08-31T01:06:17.403Z,100.00
2022-08-31T01:08:44.450Z,100.00
2022-08-31T01:11:10.802Z,100.00
2022-08-31T01:13:37.370Z,100.00
2022-08-31T01:16:05.681Z,100.00
2022-08-31T01:18:32.494Z,100.00
2022-08-31T01:21:08.089Z,100.00
2022-08-31T01:23:35.256Z,100.00
2022-08-31T01:26:02.303Z,100.00
2022-08-31T01:28:28.678Z,100.00
2022-08-31T01:31:18.386Z,100.00
2022-08-31T01:33:44.772Z,100.00
2022-08-31T01:36:14.301Z,100.00
2022-08-31T01:38:42.296Z,100.00
2022-08-31T01:41:08.671Z,100.00
2022-08-31T01:43:35.074Z,100.00
2022-08-31T01:46:02.053Z,100.00
2022-08-31T01:48:28.464Z,100.00
2022-08-31T01:50:54.849Z,100.00
2022-08-31T01:53:21.271Z,100.00
2022-08-31T01:55:47.674Z,100.00
2022-08-31T01:58:14.095Z,100.00
2022-08-31T02:00:40.484Z,100.00
2022-08-31T02:03:07.993Z,100.00
2022-08-31T02:05:35.408Z,100.00
2022-08-31T02:08:01.994Z,100.00
2022-08-31T02:10:28.364Z,100.00
2022-08-31T02:12:54.746Z,100.00
2022-08-31T02:15:21.097Z,100.00
2022-08-31T02:17:47.451Z,100.00
2022-08-31T02:20:19.271Z,100.00
2022-08-31T02:22:47.302Z,100.00
2022-08-31T02:25:13.657Z,100.00
2022-08-31T02:27:40.060Z,100.00
2022-08-31T02:30:07.732Z,100.00
2022-08-31T02:32:34.092Z,100.00
2022-08-31T02:35:00.466Z,100.00
2022-08-31T02:37:26.821Z,100.00
2022-08-31T02:39:53.200Z,100.00
2022-08-31T02:42:19.566Z,100.00
2022-08-31T02:44:45.934Z,100.00
2022-08-31T02:47:12.301Z,100.00
2022-08-31T02:49:38.665Z,100.00
2022-08-31T02:52:05.027Z,100.00
2022-08-31T02:54:31.389Z,100.00
2022-08-31T02:56:57.754Z,100.00
2022-08-31T02:59:24.120Z,100.00
2022-08-31T03:01:55.665Z,100.00
2022-08-31T03:04:22.164Z,100.00
2022-08-31T03:06:48.522Z,100.00
2022-08-31T03:09:15.769Z,100.00
2022-08-31T03:11:42.266Z,100.00
2022-08-31T03:14:08.943Z,100.00
2022-08-31T03:16:35.326Z,100.00
2022-08-31T03:19:01.700Z,100.00
2022-08-31T03:21:28.078Z,100.00
2022-08-31T03:23:54.469Z,100.00
2022-08-31T03:26:20.876Z,100.00
2022-08-31T03:28:47.287Z,100.00
2022-08-31T03:31:13.749Z,100.00
2022-08-31T03:33:40.183Z,100.00
2022-08-31T03:36:07.182Z,100.00
2022-08-31T03:38:33.680Z,100.00
2022-08-31T03:41:00.777Z,100.00
2022-08-31T03:43:27.135Z,100.00
2022-08-31T03:45:53.694Z,100.00
2022-08-31T03:48:20.048Z,100.00
2022-08-31T03:50:46.611Z,100.00
2022-08-31T03:53:12.954Z,100.00
2022-08-31T03:55:39.844Z,100.00
2022-08-31T03:58:06.583Z,100.00
2022-08-31T04:00:33.097Z,100.00
2022-08-31T04:03:00.037Z,100.00
2022-08-31T04:05:27.003Z,100.00
2022-08-31T04:07:53.434Z,100.00
2022-08-31T04:10:19.797Z,100.00
2022-08-31T04:12:46.155Z,100.00
2022-08-31T04:15:12.563Z,100.00
2022-08-31T04:17:38.908Z,100.00
2022-08-31T04:20:05.535Z,100.00
2022-08-31T04:22:31.928Z,100.00
2022-08-31T04:24:58.330Z,100.00
2022-08-31T04:27:24.675Z,100.00
2022-08-31T04:29:51.302Z,100.00
2022-08-31T04:32:17.702Z,100.00
2022-08-31T04:34:44.067Z,100.00
2022-08-31T04:37:14.337Z,100.00
2022-08-31T04:39:50.578Z,100.00
2022-08-31T04:42:17.448Z,100.00
2022-08-31T04:44:43.807Z,100.00
2022-08-31T04:47:10.155Z,100.00
2022-08-31T04:49:36.523Z,100.00
2022-08-31T04:52:03.171Z,100.00
2022-08-31T04:54:29.561Z,100.00
2022-08-31T04:56:55.986Z,100.00
2022-08-31T04:59:26.121Z,100.00
2022-08-31T05:01:52.687Z,100.00
2022-08-31T05:04:19.243Z,100.00
2022-08-31T05:06:45.706Z,100.00
2022-08-31T05:09:16.057Z,100.00
2022-08-31T05:11:42.557Z,100.00
2022-08-31T05:14:09.089Z,100.00
2022-08-31T05:16:37.362Z,100.00
2022-08-31T05:19:03.717Z,100.00
2022-08-31T05:21:30.890Z,100.00
2022-08-31T05:23:58.052Z,100.00
2022-08-31T05:26:26.822Z,100.00
2022-08-31T05:28:53.730Z,100.00
2022-08-31T05:31:21.367Z,100.00
2022-08-31T05:33:47.834Z,100.00
2022-08-31T05:36:14.192Z,100.00
2022-08-31T05:38:40.557Z,100.00
2022-08-31T05:41:07.516Z,100.00
2022-08-31T05:43:33.939Z,100.00
2022-08-31T05:46:00.555Z,100.00
2022-08-31T05:48:29.843Z,100.00
2022-08-31T05:50:59.724Z,100.00
2022-08-31T05:53:27.098Z,100.00
2022-08-31T05:56:00.421Z,100.00
2022-08-31T05:58:26.897Z,100.00
2022-08-31T06:00:53.250Z,100.00
2022-08-31T06:03:19.752Z,100.00
2022-08-31T06:05:46.256Z,100.00
2022-08-31T06:08:15.345Z,100.00
2022-08-31T06:10:41.867Z,100.00
2022-08-31T06:13:08.698Z,100.00
2022-08-31T06:15:35.485Z,100.00
2022-08-31T06:18:08.417Z,100.00
2022-08-31T06:20:37.976Z,100.00
2022-08-31T06:23:05.495Z,99.76
2022-08-31T06:25:32.496Z,99.11
2022-08-31T06:27:59.476Z,99.97
2022-08-31T06:30:27.456Z,98.66
2022-08-31T06:32:58.334Z,97.56
2022-08-31T06:35:25.100Z,96.91
2022-08-31T06:37:51.825Z,96.97
2022-08-31T06:40:18.315Z,96.75
2022-08-31T06:42:44.759Z,97.74
2022-08-31T06:45:11.324Z,100.00
2022-08-31T06:47:37.719Z,100.00
2022-08-31T06:50:04.272Z,100.00
2022-08-31T06:52:30.876Z,100.00
2022-08-31T06:54:57.292Z,100.00
2022-08-31T06:57:23.748Z,98.72
2022-08-31T06:59:51.780Z,98.91
2022-08-31T07:02:18.346Z,98.74
2022-08-31T07:04:44.932Z,98.03
2022-08-31T07:07:11.508Z,97.17
2022-08-31T07:09:39.455Z,95.53
2022-08-31T07:12:05.873Z,95.46
2022-08-31T07:14:32.327Z,92.24
2022-08-31T07:16:58.870Z,90.73
2022-08-31T07:19:25.345Z,90.68
2022-08-31T07:21:55.757Z,86.80
2022-08-31T07:24:27.790Z,86.24
2022-08-31T07:27:04.335Z,84.38
2022-08-31T07:29:33.015Z,84.23
2022-08-31T07:31:59.591Z,84.96
2022-08-31T07:34:26.939Z,84.38
2022-08-31T07:37:12.563Z,84.01
2022-08-31T07:39:57.672Z,86.26
2022-08-31T07:42:26.131Z,84.78
2022-08-31T07:44:53.440Z,83.33
2022-08-31T07:47:20.562Z,84.77
2022-08-31T07:49:51.226Z,83.52
2022-08-31T07:52:21.946Z,85.25
2022-08-31T07:54:48.580Z,84.89
2022-08-31T07:57:15.585Z,86.72
2022-08-31T07:59:41.950Z,86.38
2022-08-31T08:02:08.592Z,84.27
2022-08-31T08:04:40.894Z,80.98
2022-08-31T08:07:07.313Z,79.37
2022-08-31T08:09:34.497Z,78.85
2022-08-31T08:12:06.216Z,77.86
2022-08-31T08:14:34.352Z,78.75
2022-08-31T08:17:01.232Z,79.40
2022-08-31T08:19:27.825Z,78.12
2022-08-31T08:21:55.550Z,77.44
2022-08-31T08:24:22.674Z,76.14
2022-08-31T08:26:53.956Z,74.70
2022-08-31T08:29:20.768Z,74.26
2022-08-31T08:31:56.262Z,76.04
2022-08-31T08:34:27.106Z,72.45
2022-08-31T08:36:59.178Z,73.53
2022-08-31T08:39:25.859Z,74.10
2022-08-31T08:41:52.254Z,73.14
2022-08-31T08:44:18.875Z,73.57
2022-08-31T08:46:47.976Z,74.10
2022-08-31T08:49:14.950Z,73.60
2022-08-31T08:51:41.360Z,73.70
2022-08-31T08:54:10.859Z,73.62
2022-08-31T08:56:42.058Z,71.62
2022-08-31T08:59:12.162Z,71.67
2022-08-31T09:01:40.248Z,72.88
2022-08-31T09:04:17.125Z,72.02
2022-08-31T09:06:54.643Z,72.71
2022-08-31T09:09:39.934Z,73.89
2022-08-31T09:12:11.383Z,72.09
2022-08-31T09:14:50.462Z,71.84
2022-08-31T09:17:26.200Z,72.68
2022-08-31T09:20:00.423Z,71.43
2022-08-31T09:22:30.756Z,72.05
2022-08-31T09:24:59.596Z,70.99
2022-08-31T09:27:40.133Z,70.18
2022-08-31T09:30:06.743Z,69.27
2022-08-31T09:32:34.834Z,66.99
2022-08-31T09:35:02.551Z,67.12
2022-08-31T09:37:33.473Z,66.96
2022-08-31T09:40:32.564Z,66.13
2022-08-31T09:43:02.638Z,65.14
2022-08-31T09:45:41.810Z,64.63
2022-08-31T09:48:08.825Z,62.67
2022-08-31T09:50:45.588Z,62.40
2022-08-31T09:53:35.069Z,62.97
2022-08-31T09:56:05.656Z,63.34
2022-08-31T09:58:34.409Z,61.97
2022-08-31T10:01:12.933Z,62.80
2022-08-31T10:03:44.198Z,62.16
2022-08-31T10:06:25.116Z,62.25
2022-08-31T10:08:57.917Z,63.26
2022-08-31T10:11:26.629Z,61.28
2022-08-31T10:14:00.402Z,61.58
2022-08-31T10:16:33.022Z,60.14
2022-08-31T10:19:01.826Z,60.22
2022-08-31T10:21:32.254Z,59.50
2022-08-31T10:24:10.412Z,60.66
2022-08-31T10:26:37.916Z,59.96
2022-08-31T10:29:28.391Z,59.07
2022-08-31T10:31:55.353Z,57.70
2022-08-31T10:34:41.782Z,58.31
2022-08-31T10:37:12.513Z,59.17
2022-08-31T10:39:47.101Z,58.46
2022-08-31T10:42:30.698Z,55.96
2022-08-31T10:44:59.314Z,55.38
2022-08-31T10:47:33.718Z,56.58
2022-08-31T10:50:03.082Z,58.41
2022-08-31T10:52:32.321Z,58.58
2022-08-31T10:55:06.664Z,58.67
2022-08-31T10:57:39.904Z,57.07
2022-08-31T11:00:30.049Z,57.47
2022-08-31T11:03:00.130Z,55.21
2022-08-31T11:05:35.155Z,54.72
2022-08-31T11:08:13.836Z,57.28
2022-08-31T11:10:49.959Z,56.40
2022-08-31T11:13:25.948Z,56.83
2022-08-31T11:15:58.922Z,56.11
2022-08-31T11:18:36.228Z,54.03
2022-08-31T11:21:05.653Z,52.50
2022-08-31T11:23:35.789Z,52.95
2022-08-31T11:26:28.476Z,53.59
2022-08-31T11:28:56.422Z,52.40
2022-08-31T11:31:24.283Z,52.28
2022-08-31T11:34:15.069Z,52.37
2022-08-31T11:36:49.891Z,50.38
2022-08-31T11:39:20.282Z,51.39
2022-08-31T11:41:48.528Z,50.93
2022-08-31T11:44:30.217Z,52.66
2022-08-31T11:47:09.321Z,52.89
2022-08-31T11:49:36.769Z,51.42
2022-08-31T11:52:10.354Z,51.57
2022-08-31T11:54:42.797Z,51.54
2022-08-31T11:57:15.915Z,52.05
2022-08-31T11:59:46.212Z,53.02
2022-08-31T12:02:21.775Z,50.94
2022-08-31T12:04:53.236Z,50.05
2022-08-31T12:07:38.805Z,50.23
2022-08-31T12:10:27.194Z,50.91
2022-08-31T12:13:19.526Z,49.86
2022-08-31T12:16:07.156Z,47.28
2022-08-31T12:19:03.135Z,47.73
2022-08-31T12:21:57.137Z,47.90
2022-08-31T12:24:29.807Z,46.60
2022-08-31T12:27:17.711Z,46.42
2022-08-31T12:29:44.068Z,47.16
2022-08-31T12:32:12.785Z,48.41
2022-08-31T12:34:42.768Z,48.46
2022-08-31T12:37:19.389Z,48.83
2022-08-31T12:39:45.739Z,47.63
2022-08-31T12:42:12.101Z,47.55
2022-08-31T12:44:48.132Z,47.87
2022-08-31T12:47:26.571Z,49.70
2022-08-31T12:50:11.082Z,50.33
2022-08-31T12:52:42.710Z,50.33
2022-08-31T12:55:12.663Z,47.79
2022-08-31T12:57:50.771Z,46.80
2022-08-31T13:00:26.349Z,46.35
2022-08-31T13:02:53.643Z,46.88
2022-08-31T13:05:30.595Z,47.88
2022-08-31T13:07:56.983Z,47.73
2022-08-31T13:10:30.597Z,46.54
2022-08-31T13:12:58.430Z,47.11
2022-08-31T13:15:25.907Z,48.23
2022-08-31T13:17:53.306Z,46.98
2022-08-31T13:20:19.739Z,46.61
2022-08-31T13:22:48.852Z,47.83
2022-08-31T13:25:35.590Z,47.28
2022-08-31T13:28:03.477Z,47.63
2022-08-31T13:30:31.759Z,49.34
2022-08-31T13:32:59.255Z,50.18
2022-08-31T13:35:25.849Z,51.02
2022-08-31T13:38:05.309Z,50.80
2022-08-31T13:40:33.583Z,49.88
2022-08-31T13:42:59.999Z,47.11
2022-08-31T13:45:27.663Z,47.02
2022-08-31T13:47:57.252Z,45.09
2022-08-31T13:50:25.928Z,43.69
2022-08-31T13:53:23.018Z,43.65
2022-08-31T13:55:44.150Z,45.03
2022-08-31T13:58:22.815Z,46.84
2022-08-31T14:00:58.761Z,45.25
2022-08-31T14:03:40.958Z,45.32
2022-08-31T14:06:16.602Z,44.56
2022-08-31T14:08:46.632Z,44.86
2022-08-31T14:11:15.693Z,43.61
2022-08-31T14:13:47.217Z,43.93
2022-08-31T14:16:16.674Z,45.20
2022-08-31T14:18:45.046Z,43.03
2022-08-31T14:21:29.427Z,44.42
2022-08-31T14:24:00.994Z,47.56
2022-08-31T14:26:28.973Z,43.98
2022-08-31T14:28:56.542Z,45.37
2022-08-31T14:31:24.382Z,45.92
2022-08-31T14:33:57.506Z,44.76
2022-08-31T14:36:24.485Z,44.73
2022-08-31T14:38:54.251Z,45.13
2022-08-31T14:41:25.649Z,44.99
2022-08-31T14:43:54.408Z,45.26
2022-08-31T14:46:27.868Z,45.25
2022-08-31T14:48:55.288Z,45.59
2022-08-31T14:51:22.397Z,45.89
2022-08-31T14:53:48.744Z,46.45
2022-08-31T14:56:20.485Z,45.36
2022-08-31T14:58:50.701Z,47.00
2022-08-31T15:01:17.729Z,47.75
2022-08-31T15:03:45.070Z,46.54
2022-08-31T15:06:13.672Z,47.63
2022-08-31T15:08:40.839Z,46.72
2022-08-31T15:11:10.070Z,46.70
2022-08-31T15:13:39.582Z,47.89
2022-08-31T15:16:06.497Z,47.42
2022-08-31T15:18:33.767Z,47.73
2022-08-31T15:21:02.050Z,47.45
2022-08-31T15:23:29.649Z,47.54
2022-08-31T15:26:06.345Z,48.30
2022-08-31T15:28:41.892Z,47.40
2022-08-31T15:31:11.309Z,47.40
2022-08-31T15:33:41.313Z,47.85
2022-08-31T15:36:09.144Z,46.69
2022-08-31T15:41:01.732Z,46.68
2022-08-31T15:43:28.287Z,47.02
2022-08-31T15:45:54.670Z,47.40
2022-08-31T15:48:39.871Z,46.96
2022-08-31T15:51:06.363Z,47.78
2022-08-31T15:53:35.418Z,46.65
2022-08-31T15:56:06.241Z,47.11
2022-08-31T15:58:33.687Z,47.31
2022-08-31T16:01:00.397Z,47.48
2022-08-31T16:03:32.162Z,48.16
2022-08-31T16:06:03.129Z,48.35
2022-08-31T16:08:29.563Z,48.54
2022-08-31T16:10:56.066Z,48.69
2022-08-31T16:13:22.531Z,47.56
2022-08-31T16:15:51.065Z,47.56
2022-08-31T16:18:18.560Z,47.89
2022-08-31T16:20:48.030Z,47.06
2022-08-31T16:23:14.632Z,46.52
2022-08-31T16:25:48.456Z,47.33
2022-08-31T16:28:16.232Z,47.47
2022-08-31T16:30:43.861Z,46.63
2022-08-31T16:33:11.517Z,46.58
2022-08-31T16:35:38.670Z,46.41
2022-08-31T16:38:06.479Z,45.54
2022-08-31T16:40:33.307Z,46.15
2022-08-31T16:42:59.884Z,45.95
2022-08-31T16:45:26.391Z,46.06
2022-08-31T16:48:12.875Z,46.47
2022-08-31T16:50:43.827Z,46.75
2022-08-31T16:53:10.265Z,47.28
2022-08-31T16:55:42.037Z,47.42
2022-08-31T16:58:08.486Z,48.65
2022-08-31T17:00:37.896Z,48.63
2022-08-31T17:03:04.529Z,48.58
2022-08-31T17:05:30.964Z,49.44
2022-08-31T17:07:57.731Z,48.51
2022-08-31T17:10:24.222Z,48.39
2022-08-31T17:12:52.216Z,49.49
2022-08-31T17:15:20.817Z,49.46
2022-08-31T17:17:48.048Z,49.30
2022-08-31T17:20:16.507Z,49.81
2022-08-31T17:22:44.810Z,49.21
2022-08-31T17:25:13.181Z,49.59
2022-08-31T17:27:39.820Z,49.61
2022-08-31T17:30:07.368Z,49.94
2022-08-31T17:32:36.564Z,48.80
2022-08-31T17:35:11.541Z,48.57
2022-08-31T17:37:38.525Z,48.77
2022-08-31T17:40:08.034Z,49.13
2022-08-31T17:42:35.002Z,49.13
2022-08-31T17:45:04.997Z,49.13
2022-08-31T17:47:33.104Z,48.62
2022-08-31T17:49:59.554Z,49.00
2022-08-31T17:52:26.021Z,49.10
2022-08-31T17:54:52.656Z,48.86
2022-08-31T17:57:21.321Z,49.43
2022-08-31T17:59:50.732Z,50.13
2022-08-31T18:02:19.102Z,50.45
2022-08-31T18:04:45.739Z,50.16
2022-08-31T18:07:12.269Z,50.45
2022-08-31T18:09:39.654Z,50.86
2022-08-31T18:12:06.313Z,52.05
2022-08-31T18:14:32.954Z,52.48
2022-08-31T18:17:00.533Z,53.58
2022-08-31T18:19:28.189Z,52.49
2022-08-31T18:21:57.925Z,55.14
2022-08-31T18:24:24.930Z,54.69
2022-08-31T18:26:51.853Z,55.18
2022-08-31T18:29:22.627Z,55.40
2022-08-31T18:31:52.969Z,55.91
2022-08-31T18:34:21.229Z,55.40
2022-08-31T18:36:48.294Z,55.64
2022-08-31T18:39:29.416Z,56.08
2022-08-31T18:42:23.603Z,56.03
2022-08-31T18:45:08.608Z,56.01
2022-08-31T18:47:35.113Z,55.87
2022-08-31T18:50:03.319Z,55.85
2022-08-31T18:52:29.847Z,55.12
2022-08-31T18:54:56.979Z,55.09
2022-08-31T18:57:23.798Z,55.54
2022-08-31T18:59:50.818Z,54.97
2022-08-31T19:02:22.840Z,54.63
2022-08-31T19:04:50.315Z,55.03
2022-08-31T19:07:16.884Z,52.99
2022-08-31T19:09:45.089Z,52.58
2022-08-31T19:12:13.671Z,52.90
2022-08-31T19:14:40.466Z,53.90
2022-08-31T19:17:08.320Z,53.50
2022-08-31T19:19:34.845Z,53.32
2022-08-31T19:22:02.094Z,53.44
2022-08-31T19:24:28.690Z,53.64
2022-08-31T19:26:56.062Z,54.07
2022-08-31T19:29:25.009Z,54.28
2022-08-31T19:31:51.789Z,54.49
2022-08-31T19:34:19.787Z,54.71
2022-08-31T19:36:48.677Z,55.43
2022-08-31T19:39:20.213Z,54.91
2022-08-31T19:41:57.416Z,55.90
2022-08-31T19:44:26.439Z,56.60
2022-08-31T19:46:53.447Z,56.97
2022-08-31T19:49:20.021Z,57.24
2022-08-31T19:51:58.636Z,58.37
2022-08-31T19:54:26.176Z,58.58
2022-08-31T19:56:52.887Z,58.71
2022-08-31T19:59:21.088Z,60.16
2022-08-31T20:01:48.289Z,59.59
2022-08-31T20:04:17.222Z,59.82
2022-08-31T20:06:45.154Z,60.08
2022-08-31T20:09:11.643Z,60.08
2022-08-31T20:11:38.085Z,60.71
2022-08-31T20:14:05.196Z,60.20
2022-08-31T20:16:34.146Z,62.33
2022-08-31T20:19:00.787Z,61.71
2022-08-31T20:21:28.096Z,62.26
2022-08-31T20:23:56.390Z,62.66
2022-08-31T20:26:27.877Z,61.57
2022-08-31T20:29:01.216Z,62.04
2022-08-31T20:31:27.824Z,61.03
2022-08-31T20:33:55.645Z,60.64
2022-08-31T20:36:23.054Z,59.45
2022-08-31T20:38:52.214Z,61.50
2022-08-31T20:41:18.945Z,60.84
2022-08-31T20:43:46.057Z,62.08
2022-08-31T20:46:32.412Z,62.88
2022-08-31T20:49:17.499Z,62.39
2022-08-31T20:51:44.725Z,63.48
2022-08-31T20:54:11.294Z,63.67
2022-08-31T20:56:39.430Z,63.25
2022-08-31T20:59:09.734Z,63.54
2022-08-31T21:01:39.205Z,64.30
2022-08-31T21:04:05.898Z,63.78
2022-08-31T21:06:37.325Z,63.52
2022-08-31T21:09:03.690Z,62.57
2022-08-31T21:11:30.035Z,62.53
2022-08-31T21:13:56.387Z,62.37
2022-08-31T21:16:23.560Z,63.17
2022-08-31T21:18:49.963Z,63.76
2022-08-31T21:21:17.391Z,64.76
2022-08-31T21:23:46.907Z,65.04
2022-08-31T21:26:17.347Z,65.89
2022-08-31T21:28:46.268Z,66.68
2022-08-31T21:31:15.648Z,66.57
2022-08-31T21:33:54.699Z,66.33
2022-08-31T21:36:25.971Z,67.07
2022-08-31T21:38:52.763Z,67.49
2022-08-31T21:41:20.054Z,68.48
2022-08-31T21:43:46.990Z,68.78
2022-08-31T21:46:14.285Z,68.04
2022-08-31T21:48:42.366Z,68.05
2022-08-31T21:51:10.103Z,66.61
2022-08-31T21:53:36.467Z,67.26
2022-08-31T21:56:03.186Z,66.75
2022-08-31T21:58:29.573Z,68.10
2022-08-31T22:00:56.312Z,68.13
2022-08-31T22:03:22.683Z,68.20
2022-08-31T22:05:49.044Z,68.16
2022-08-31T22:08:15.428Z,68.09
2022-08-31T22:10:42.151Z,69.71
2022-08-31T22:13:11.545Z,68.14
2022-08-31T22:15:38.214Z,69.09
2022-08-31T22:18:58.418Z,69.15
2022-08-31T22:20:52.378Z,68.60
2022-08-31T22:23:18.851Z,70.29
2022-08-31T22:25:45.227Z,69.40
2022-08-31T22:28:12.861Z,69.81
2022-08-31T22:30:39.349Z,70.39
2022-08-31T22:33:05.756Z,70.00
2022-08-31T22:35:32.123Z,70.40
2022-08-31T22:37:58.538Z,69.63
2022-08-31T22:40:25.011Z,69.13
2022-08-31T22:42:51.918Z,69.49
2022-08-31T22:45:18.441Z,67.87
2022-08-31T22:47:49.762Z,66.92
2022-08-31T22:50:16.678Z,66.62
2022-08-31T22:52:43.048Z,67.26
2022-08-31T22:55:09.522Z,67.34
2022-08-31T22:57:36.554Z,67.13
2022-08-31T23:00:04.368Z,67.48
2022-08-31T23:02:31.158Z,67.04
2022-08-31T23:04:57.736Z,67.91
2022-08-31T23:07:24.087Z,67.97
2022-08-31T23:09:50.436Z,68.51
2022-08-31T23:12:16.827Z,67.95
2022-08-31T23:14:43.182Z,68.43
2022-08-31T23:17:13.761Z,68.55
2022-08-31T23:19:41.116Z,67.85
2022-08-31T23:22:09.400Z,67.38
2022-08-31T23:24:37.044Z,67.65
2022-08-31T23:27:07.268Z,68.35
2022-08-31T23:29:34.945Z,68.83
2022-08-31T23:32:01.486Z,69.51
2022-08-31T23:34:27.843Z,70.45
2022-08-31T23:36:55.521Z,70.98
2022-08-31T23:39:22.878Z,71.01
2022-08-31T23:41:49.368Z,71.74
2022-08-31T23:44:15.994Z,72.65
2022-08-31T23:46:43.269Z,72.95
2022-08-31T23:49:10.136Z,71.69
2022-08-31T23:51:36.509Z,71.04
2022-08-31T23:54:06.312Z,70.83
2022-08-31T23:56:33.063Z,71.29
2022-08-31T23:58:59.555Z,70.75
